Time;durP1;ratioP1;P1;durP2;ratioP2;P2;SDS_P1;SDS_P2;PMS_P1;PMS_P2;Temp;Humidity;BMP_temperature;BMP_pressure;BME280_temperature;BME280_humidity;BME280_pressure;Samples;Min_cycle;Max_cycle;Signal;HPM_P1;HPM_P2
2022/04/21 00:00:25;;;;;;;1.23;1.10;;;;;;;;;;6206653;23;20074;-53
2022/04/21 00:02:51;;;;;;;1.50;1.23;;;;;;;;;;6206932;23;20331;-53
2022/04/21 00:05:17;;;;;;;1.33;1.10;;;;;;;;;;6207324;23;20340;-53
2022/04/21 00:07:43;;;;;;;1.30;1.20;;;;;;;;;;6207523;23;20076;-52
2022/04/21 00:10:10;;;;;;;1.25;1.15;;;;;;;;;;6207412;23;20012;-53
2022/04/21 00:12:36;;;;;;;1.40;1.30;;;;;;;;;;6208151;23;20004;-53
2022/04/21 00:15:05;;;;;;;1.05;0.95;;;;;;;;;;6207190;23;20001;-53
2022/04/21 00:17:31;;;;;;;0.98;0.90;;;;;;;;;;6209473;23;20355;-52
2022/04/21 00:19:57;;;;;;;1.00;0.90;;;;;;;;;;6209408;23;20004;-53
2022/04/21 00:25:09;;;;;;;1.33;1.23;;;;;;;;;;6209264;23;20092;-51
2022/04/21 00:27:39;;;;;;;1.15;1.08;;;;;;;;;;6209977;23;20005;-53
2022/04/21 00:30:09;;;;;;;1.58;1.20;;;;;;;;;;6209482;23;20080;-53
2022/04/21 00:32:36;;;;;;;1.45;1.00;;;;;;;;;;6209593;23;20013;-52
2022/04/21 00:35:02;;;;;;;1.48;1.20;;;;;;;;;;6209758;23;20013;-52
2022/04/21 00:37:29;;;;;;;1.20;1.10;;;;;;;;;;6209242;23;20009;-52
2022/04/21 00:39:55;;;;;;;1.83;1.23;;;;;;;;;;6209223;23;20013;-52
2022/04/21 00:42:21;;;;;;;0.95;0.93;;;;;;;;;;6209246;23;20004;-52
2022/04/21 00:44:49;;;;;;;1.23;1.13;;;;;;;;;;6208656;23;20329;-53
2022/04/21 00:47:16;;;;;;;1.27;0.98;;;;;;;;;;6208587;23;20004;-50
2022/04/21 00:49:43;;;;;;;1.50;1.40;;;;;;;;;;6208722;23;20529;-53
2022/04/21 00:52:10;;;;;;;1.40;1.30;;;;;;;;;;6208914;23;20004;-52
2022/04/21 00:54:36;;;;;;;1.17;1.08;;;;;;;;;;6209582;23;20015;-52
2022/04/21 00:57:02;;;;;;;1.45;1.30;;;;;;;;;;6207744;23;20426;-53
2022/04/21 00:59:29;;;;;;;1.80;1.55;;;;;;;;;;6208939;23;20008;-52
2022/04/21 01:04:39;;;;;;;1.45;1.35;;;;;;;;;;6208860;23;20047;-53
2022/04/21 01:07:09;;;;;;;1.73;1.50;;;;;;;;;;6208787;23;20485;-52
2022/04/21 01:09:38;;;;;;;1.40;1.23;;;;;;;;;;6208791;23;20479;-53
2022/04/21 01:12:10;;;;;;;1.35;1.25;;;;;;;;;;6206604;23;20448;-53
2022/04/21 01:14:39;;;;;;;1.67;1.58;;;;;;;;;;6208651;23;20013;-52
2022/04/21 01:17:06;;;;;;;2.40;1.42;;;;;;;;;;6208359;23;20011;-52
2022/04/21 01:19:32;;;;;;;1.52;1.42;;;;;;;;;;6208634;23;20007;-53
2022/04/21 01:21:58;;;;;;;2.13;1.77;;;;;;;;;;6208382;23;20005;-53
2022/04/21 01:24:25;;;;;;;1.48;1.38;;;;;;;;;;6207692;23;20012;-53
2022/04/21 01:26:51;;;;;;;1.75;1.50;;;;;;;;;;6208588;23;20005;-53
2022/04/21 01:29:17;;;;;;;1.52;1.40;;;;;;;;;;6209323;23;20457;-53
2022/04/21 01:31:44;;;;;;;1.30;1.20;;;;;;;;;;6208289;23;19997;-53
2022/04/21 01:34:10;;;;;;;1.60;1.33;;;;;;;;;;6208405;23;20032;-53
2022/04/21 01:41:08;;;;;;;1.60;1.48;;;;;;;;;;6208460;23;20426;-54
2022/04/21 01:42:07;;;;;;;1.50;1.40;;;;;;;;;;6208367;23;20023;-52
2022/04/21 01:44:33;;;;;;;1.58;1.38;;;;;;;;;;6208001;23;19996;-52
2022/04/21 01:46:59;;;;;;;1.30;1.20;;;;;;;;;;6208106;23;20440;-53
2022/04/21 01:49:25;;;;;;;1.50;1.38;;;;;;;;;;6208334;23;20068;-53
2022/04/21 01:51:51;;;;;;;2.00;1.80;;;;;;;;;;6209140;23;20088;-52
2022/04/21 01:54:17;;;;;;;1.70;1.60;;;;;;;;;;6208273;23;20007;-54
2022/04/21 01:56:43;;;;;;;1.75;1.55;;;;;;;;;;6208021;23;20416;-53
2022/04/21 01:59:10;;;;;;;1.60;1.50;;;;;;;;;;6207632;23;20035;-53
2022/04/21 02:01:36;;;;;;;1.65;1.55;;;;;;;;;;6208110;23;20012;-53
2022/04/21 02:04:02;;;;;;;2.08;1.40;;;;;;;;;;6207674;23;20019;-53
2022/04/21 02:06:28;;;;;;;2.22;1.50;;;;;;;;;;6208219;23;20460;-52
2022/04/21 02:08:55;;;;;;;1.48;1.38;;;;;;;;;;6208304;23;20001;-52
2022/04/21 02:11:21;;;;;;;1.20;1.10;;;;;;;;;;6209023;23;20079;-53
2022/04/21 02:13:47;;;;;;;1.70;1.60;;;;;;;;;;6208892;23;20461;-53
2022/04/21 02:16:13;;;;;;;1.55;1.05;;;;;;;;;;6207593;23;20006;-53
2022/04/21 02:18:39;;;;;;;1.30;1.20;;;;;;;;;;6208404;23;20054;-52
2022/04/21 02:21:05;;;;;;;1.30;1.20;;;;;;;;;;6208010;23;20469;-52
2022/04/21 02:23:31;;;;;;;1.42;1.33;;;;;;;;;;6208010;23;20457;-52
2022/04/21 02:25:58;;;;;;;1.45;1.27;;;;;;;;;;6208218;23;20479;-52
2022/04/21 02:28:25;;;;;;;1.30;1.20;;;;;;;;;;6207548;23;20000;-53
2022/04/21 02:30:51;;;;;;;1.45;1.30;;;;;;;;;;6208222;23;20639;-52
2022/04/21 02:33:17;;;;;;;1.70;1.60;;;;;;;;;;6208389;23;20020;-52
2022/04/21 02:35:43;;;;;;;1.52;1.30;;;;;;;;;;6208101;23;20513;-52
2022/04/21 02:38:09;;;;;;;1.45;1.27;;;;;;;;;;6207416;23;20001;-52
2022/04/21 02:40:35;;;;;;;1.73;1.48;;;;;;;;;;6207703;23;20013;-52
2022/04/21 02:43:02;;;;;;;1.20;1.10;;;;;;;;;;6207558;23;20034;-53
2022/04/21 02:45:28;;;;;;;1.17;1.15;;;;;;;;;;6207769;23;20001;-52
2022/04/21 02:47:54;;;;;;;1.33;1.23;;;;;;;;;;6208035;23;20373;-52
2022/04/21 02:50:20;;;;;;;1.38;1.00;;;;;;;;;;6208093;23;20366;-53
2022/04/21 02:52:47;;;;;;;1.60;1.30;;;;;;;;;;6208328;23;20037;-51
2022/04/21 02:57:59;;;;;;;1.38;1.27;;;;;;;;;;6207502;23;20020;-52
2022/04/21 03:00:25;;;;;;;1.85;1.50;;;;;;;;;;6207259;23;20017;-52
2022/04/21 03:02:51;;;;;;;2.17;1.45;;;;;;;;;;6207541;23;20580;-51
2022/04/21 03:05:17;;;;;;;1.60;1.10;;;;;;;;;;6206706;23;20001;-52
2022/04/21 03:07:44;;;;;;;2.75;1.70;;;;;;;;;;6205975;23;20315;-52
2022/04/21 03:10:10;;;;;;;1.40;1.30;;;;;;;;;;6207762;23;20028;-52
2022/04/21 03:12:36;;;;;;;2.08;1.60;;;;;;;;;;6207610;23;20013;-53
2022/04/21 03:15:03;;;;;;;1.40;1.17;;;;;;;;;;6207546;23;20012;-51
2022/04/21 03:17:29;;;;;;;1.60;1.30;;;;;;;;;;6206988;23;20020;-53
2022/04/21 03:19:55;;;;;;;1.55;1.42;;;;;;;;;;6206887;23;20476;-53
2022/04/21 03:25:10;;;;;;;1.45;1.20;;;;;;;;;;6206410;23;20484;-52
2022/04/21 03:27:36;;;;;;;1.52;1.42;;;;;;;;;;6206832;23;20635;-52
2022/04/21 03:30:05;;;;;;;1.10;1.00;;;;;;;;;;6207434;23;20005;-52
2022/04/21 03:32:31;;;;;;;1.20;1.08;;;;;;;;;;6207748;23;20008;-52
2022/04/21 03:35:00;;;;;;;1.42;1.33;;;;;;;;;;6206959;23;20059;-53
2022/04/21 03:37:26;;;;;;;1.00;0.90;;;;;;;;;;6206498;23;20087;-52
2022/04/21 03:39:52;;;;;;;1.20;1.10;;;;;;;;;;6206217;23;20012;-52
2022/04/21 03:42:19;;;;;;;1.50;1.13;;;;;;;;;;6206347;23;20011;-52
2022/04/21 03:44:45;;;;;;;1.00;1.00;;;;;;;;;;6205868;23;20011;-52
2022/04/21 03:47:11;;;;;;;1.40;1.30;;;;;;;;;;6207101;23;20004;-53
2022/04/21 03:49:38;;;;;;;1.20;1.10;;;;;;;;;;6206859;23;19997;-53
2022/04/21 03:52:04;;;;;;;1.33;1.20;;;;;;;;;;6208913;23;20016;-53
2022/04/21 03:54:30;;;;;;;1.20;1.00;;;;;;;;;;6209377;23;20084;-51
2022/04/21 03:56:56;;;;;;;1.10;1.00;;;;;;;;;;6208571;23;20535;-53
2022/04/21 03:59:23;;;;;;;1.30;1.20;;;;;;;;;;6208376;23;20376;-52
2022/04/21 04:01:51;;;;;;;1.20;1.10;;;;;;;;;;6208427;23;20326;-52
2022/04/21 04:04:17;;;;;;;1.33;1.17;;;;;;;;;;6209082;23;20009;-53
2022/04/21 04:12:13;;;;;;;1.17;1.10;;;;;;;;;;6208555;23;19970;-52
2022/04/21 04:14:39;;;;;;;1.15;1.00;;;;;;;;;;6207202;23;19997;-51
2022/04/21 04:17:06;;;;;;;1.20;1.10;;;;;;;;;;6208473;23;20385;-53
2022/04/21 04:19:35;;;;;;;1.10;1.00;;;;;;;;;;6209478;23;20005;-53
2022/04/21 04:22:06;;;;;;;1.30;1.02;;;;;;;;;;6209447;23;20008;-52
2022/04/21 04:24:32;;;;;;;0.80;0.80;;;;;;;;;;6207253;23;20014;-53
2022/04/21 04:26:58;;;;;;;1.17;1.08;;;;;;;;;;6208590;23;20307;-53
2022/04/21 04:29:24;;;;;;;1.20;1.10;;;;;;;;;;6208073;23;20028;-49
2022/04/21 04:31:53;;;;;;;1.15;1.05;;;;;;;;;;6208282;23;20001;-49
2022/04/21 04:34:22;;;;;;;0.93;0.93;;;;;;;;;;6208386;23;20008;-49
2022/04/21 04:36:48;;;;;;;1.42;1.15;;;;;;;;;;6207884;23;20039;-50
2022/04/21 04:39:15;;;;;;;1.00;1.00;;;;;;;;;;6207806;23;20363;-50
2022/04/21 04:44:26;;;;;;;1.05;1.02;;;;;;;;;;6208166;23;20354;-49
2022/04/21 04:46:52;;;;;;;0.85;0.85;;;;;;;;;;6207908;23;20074;-47
2022/04/21 04:49:18;;;;;;;1.27;1.15;;;;;;;;;;6207871;23;20334;-48
2022/04/21 04:51:45;;;;;;;0.90;0.90;;;;;;;;;;6208164;23;19997;-50
2022/04/21 04:54:11;;;;;;;1.20;1.10;;;;;;;;;;6207903;23;20435;-50
2022/04/21 04:56:38;;;;;;;1.27;1.08;;;;;;;;;;6205922;23;20004;-49
2022/04/21 04:59:04;;;;;;;1.27;1.17;;;;;;;;;;6207804;23;19997;-46
2022/04/21 05:01:40;;;;;;;1.20;1.10;;;;;;;;;;6208174;23;20437;-48
2022/04/21 05:04:17;;;;;;;1.58;1.30;;;;;;;;;;6208003;23;20009;-50
2022/04/21 05:06:45;;;;;;;1.35;1.25;;;;;;;;;;6208054;23;20008;-49
2022/04/21 05:09:13;;;;;;;1.30;1.20;;;;;;;;;;6207987;23;20020;-49
2022/04/21 05:11:40;;;;;;;1.05;1.00;;;;;;;;;;6207328;23;19996;-48
2022/04/21 05:14:09;;;;;;;1.20;1.10;;;;;;;;;;6207899;23;20051;-50
2022/04/21 05:16:42;;;;;;;2.20;1.30;;;;;;;;;;6207767;23;20012;-50
2022/04/21 05:19:09;;;;;;;1.55;1.25;;;;;;;;;;6207520;23;20067;-50
2022/04/21 05:21:36;;;;;;;1.40;1.10;;;;;;;;;;6207798;23;20111;-49
2022/04/21 05:24:02;;;;;;;1.75;1.30;;;;;;;;;;6208044;23;20004;-50
2022/04/21 05:26:29;;;;;;;1.50;1.40;;;;;;;;;;6207988;23;20004;-49
2022/04/21 05:28:56;;;;;;;2.05;1.40;;;;;;;;;;6207913;23;20028;-50
2022/04/21 05:31:23;;;;;;;1.50;1.40;;;;;;;;;;6208075;23;20331;-48
2022/04/21 05:33:49;;;;;;;1.38;1.27;;;;;;;;;;6207405;23;20009;-49
2022/04/21 05:36:15;;;;;;;1.67;1.50;;;;;;;;;;6207817;23;20269;-47
2022/04/21 05:38:42;;;;;;;1.30;1.20;;;;;;;;;;6206523;23;20460;-48
2022/04/21 05:41:08;;;;;;;1.33;1.23;;;;;;;;;;6207871;23;20016;-48
2022/04/21 05:43:39;;;;;;;1.20;1.10;;;;;;;;;;6207306;23;20054;-50
2022/04/21 05:46:05;;;;;;;1.60;1.30;;;;;;;;;;6207845;23;20005;-48
2022/04/21 05:48:32;;;;;;;1.38;1.27;;;;;;;;;;6207539;23;20492;-48
2022/04/21 05:50:58;;;;;;;1.52;1.15;;;;;;;;;;6207761;23;20000;-49
2022/04/21 05:53:26;;;;;;;1.40;1.30;;;;;;;;;;6207807;23;20005;-47
2022/04/21 05:55:53;;;;;;;1.40;1.30;;;;;;;;;;6207681;23;20009;-50
2022/04/21 05:58:20;;;;;;;1.25;1.15;;;;;;;;;;6206812;23;20005;-49
2022/04/21 06:00:46;;;;;;;1.40;1.30;;;;;;;;;;6206988;23;20028;-50
2022/04/21 06:03:12;;;;;;;1.65;1.30;;;;;;;;;;6206829;23;20008;-49
2022/04/21 06:05:39;;;;;;;1.42;1.33;;;;;;;;;;6207297;23;20005;-49
2022/04/21 06:08:06;;;;;;;1.30;1.13;;;;;;;;;;6207877;23;20008;-49
2022/04/21 06:10:36;;;;;;;1.85;1.50;;;;;;;;;;6207802;23;20054;-49
2022/04/21 06:13:03;;;;;;;1.52;1.33;;;;;;;;;;6207904;23;20008;-49
2022/04/21 06:15:33;;;;;;;1.40;1.20;;;;;;;;;;6207920;23;20005;-49
2022/04/21 06:17:59;;;;;;;1.33;1.23;;;;;;;;;;6207679;23;20064;-49
2022/04/21 06:20:28;;;;;;;1.27;1.17;;;;;;;;;;6207472;23;20004;-51
2022/04/21 06:22:55;;;;;;;1.52;1.30;;;;;;;;;;6207359;23;20015;-49
2022/04/21 06:25:21;;;;;;;1.35;1.25;;;;;;;;;;6207011;23;20007;-48
2022/04/21 06:27:48;;;;;;;1.25;1.15;;;;;;;;;;6205843;23;20510;-49
2022/04/21 06:30:14;;;;;;;1.48;1.05;;;;;;;;;;6180733;23;20084;-47
2022/04/21 06:32:40;;;;;;;1.15;1.13;;;;;;;;;;6206732;23;20004;-46
2022/04/21 06:35:06;;;;;;;1.05;1.05;;;;;;;;;;6206777;23;20008;-48
2022/04/21 06:37:34;;;;;;;1.10;1.00;;;;;;;;;;6180624;23;20031;-49
2022/04/21 06:40:00;;;;;;;1.10;1.00;;;;;;;;;;6208163;23;20075;-50
2022/04/21 06:42:26;;;;;;;1.20;1.10;;;;;;;;;;6207364;23;20031;-47
2022/04/21 06:50:21;;;;;;;;;;;;;;;;;;6207313;23;20011;-49
2022/04/21 06:52:47;;;;;;;1.40;1.20;;;;;;;;;;6206937;23;20639;-50
2022/04/21 06:55:13;;;;;;;1.17;1.05;;;;;;;;;;6207222;23;20456;-50
2022/04/21 06:57:39;;;;;;;1.85;1.50;;;;;;;;;;6206342;23;20004;-50
2022/04/21 07:00:06;;;;;;;1.60;1.50;;;;;;;;;;6207181;23;20695;-50
2022/04/21 07:02:32;;;;;;;1.48;1.27;;;;;;;;;;6206388;23;20531;-48
2022/04/21 07:05:10;;;;;;;1.30;1.20;;;;;;;;;;6206625;23;20080;-48
2022/04/21 07:07:36;;;;;;;1.20;1.10;;;;;;;;;;6205138;23;20084;-50
2022/04/21 07:10:03;;;;;;;1.60;1.27;;;;;;;;;;6207507;23;20751;-47
2022/04/21 07:12:29;;;;;;;1.48;1.33;;;;;;;;;;6206919;23;20032;-50
2022/04/21 07:14:59;;;;;;;1.48;1.38;;;;;;;;;;6206821;23;20137;-51
2022/04/21 07:17:25;;;;;;;1.30;1.10;;;;;;;;;;6207228;23;20492;-51
2022/04/21 07:19:52;;;;;;;1.20;1.10;;;;;;;;;;6206438;23;20012;-48
2022/04/21 07:22:21;;;;;;;1.40;1.20;;;;;;;;;;6205457;23;20005;-48
2022/04/21 07:24:47;;;;;;;1.42;1.27;;;;;;;;;;6205269;23;20007;-47
2022/04/21 07:27:13;;;;;;;1.48;1.38;;;;;;;;;;6207593;23;20076;-50
2022/04/21 07:29:40;;;;;;;1.33;1.23;;;;;;;;;;6207606;23;20001;-50
2022/04/21 07:32:06;;;;;;;1.70;1.60;;;;;;;;;;6207646;23;19997;-49
2022/04/21 07:34:32;;;;;;;1.45;1.35;;;;;;;;;;6207901;23;19997;-50
2022/04/21 07:36:58;;;;;;;1.40;1.30;;;;;;;;;;6207046;23;20001;-48
2022/04/21 07:39:24;;;;;;;1.30;1.20;;;;;;;;;;6208040;23;20059;-50
2022/04/21 07:41:50;;;;;;;1.42;1.33;;;;;;;;;;6209034;23;20027;-48
2022/04/21 07:44:17;;;;;;;1.85;1.40;;;;;;;;;;6204870;23;20085;-48
2022/04/21 07:46:43;;;;;;;1.40;1.30;;;;;;;;;;6181033;23;20020;-49
2022/04/21 07:53:13;;;;;;;1.58;1.48;;;;;;;;;;6205188;23;20028;-50
2022/04/21 07:54:46;;;;;;;2.10;1.60;;;;;;;;;;6206908;23;20449;-51
2022/04/21 07:57:12;;;;;;;2.08;1.50;;;;;;;;;;6207053;23;20361;-52
2022/04/21 07:59:38;;;;;;;2.85;1.60;;;;;;;;;;6207391;23;20079;-51
2022/04/21 08:02:06;;;;;;;1.75;1.52;;;;;;;;;;6207106;23;20008;-51
2022/04/21 08:04:33;;;;;;;1.85;1.60;;;;;;;;;;6207750;23;20081;-52
2022/04/21 08:07:00;;;;;;;2.05;1.85;;;;;;;;;;6208220;23;20013;-51
2022/04/21 08:09:26;;;;;;;2.42;1.80;;;;;;;;;;6207560;23;20028;-49
2022/04/21 08:11:52;;;;;;;1.80;1.70;;;;;;;;;;6207294;23;20334;-49
2022/04/21 08:14:18;;;;;;;1.98;1.77;;;;;;;;;;6207459;23;20056;-49
2022/04/21 08:16:44;;;;;;;2.72;1.80;;;;;;;;;;6206744;23;20368;-48
2022/04/21 08:19:13;;;;;;;1.55;1.15;;;;;;;;;;6179462;23;20063;-52
2022/04/21 08:21:39;;;;;;;1.70;1.60;;;;;;;;;;6207111;23;20393;-52
2022/04/21 08:35:05;;;;;;;;;;;;;;;;;;6207422;23;20503;-49
2022/04/21 08:37:33;;;;;;;1.63;1.33;;;;;;;;;;6207719;23;19934;-52
2022/04/21 08:40:00;;;;;;;1.20;1.10;;;;;;;;;;6207695;23;20004;-52
2022/04/21 08:42:29;;;;;;;1.30;1.00;;;;;;;;;;6206375;23;20004;-51
2022/04/21 08:44:58;;;;;;;1.98;1.58;;;;;;;;;;6207512;23;20000;-50
2022/04/21 08:47:27;;;;;;;1.80;1.40;;;;;;;;;;6206030;23;20011;-52
2022/04/21 08:49:59;;;;;;;1.30;1.20;;;;;;;;;;6204990;23;20004;-51
2022/04/21 08:52:26;;;;;;;1.40;1.30;;;;;;;;;;6202466;23;20035;-47
2022/04/21 08:54:54;;;;;;;1.77;1.40;;;;;;;;;;6207220;23;20013;-51
2022/04/21 08:57:24;;;;;;;1.75;1.30;;;;;;;;;;6205296;23;20365;-51
2022/04/21 08:59:50;;;;;;;2.13;1.73;;;;;;;;;;6206009;23;20008;-50
2022/04/21 09:02:16;;;;;;;2.03;1.80;;;;;;;;;;6206775;23;20011;-49
2022/04/21 09:04:42;;;;;;;2.20;2.00;;;;;;;;;;6206577;23;20001;-48
2022/04/21 09:07:15;;;;;;;2.05;1.63;;;;;;;;;;6207734;23;19997;-49
2022/04/21 09:09:59;;;;;;;2.08;1.60;;;;;;;;;;6206744;23;20342;-48
2022/04/21 09:12:26;;;;;;;2.15;1.50;;;;;;;;;;6179430;23;20016;-50
2022/04/21 09:14:52;;;;;;;1.80;1.40;;;;;;;;;;6206938;23;20427;-52
2022/04/21 09:17:19;;;;;;;1.40;1.27;;;;;;;;;;6207062;23;20043;-47
2022/04/21 09:19:56;;;;;;;1.30;1.20;;;;;;;;;;6206501;23;20002;-47
2022/04/21 09:22:22;;;;;;;1.40;1.30;;;;;;;;;;6206843;23;20004;-47
2022/04/21 09:24:51;;;;;;;1.65;1.52;;;;;;;;;;6206652;23;20008;-50
2022/04/21 09:27:17;;;;;;;1.40;1.30;;;;;;;;;;6206763;23;20004;-48
2022/04/21 09:29:43;;;;;;;1.10;1.00;;;;;;;;;;6206254;23;20024;-47
2022/04/21 09:32:09;;;;;;;1.85;1.70;;;;;;;;;;6207338;23;20025;-50
2022/04/21 09:34:36;;;;;;;1.83;1.60;;;;;;;;;;6207200;23;20008;-48
2022/04/21 09:37:05;;;;;;;1.92;1.73;;;;;;;;;;6208653;23;20000;-45
2022/04/21 09:39:31;;;;;;;1.30;1.20;;;;;;;;;;6208255;23;20053;-49
2022/04/21 09:41:57;;;;;;;1.40;1.30;;;;;;;;;;6208636;23;19996;-49
2022/04/21 09:47:20;;;;;;;1.27;1.17;;;;;;;;;;6207710;23;20011;-48
2022/04/21 09:49:46;;;;;;;1.80;1.33;;;;;;;;;;6207585;23;20020;-50
2022/04/21 09:52:12;;;;;;;2.25;1.50;;;;;;;;;;6207270;23;20583;-47
2022/04/21 09:54:45;;;;;;;1.40;1.30;;;;;;;;;;6207683;23;20005;-50
2022/04/21 09:57:11;;;;;;;1.52;1.15;;;;;;;;;;6208448;23;20001;-49
2022/04/21 09:59:38;;;;;;;1.27;1.17;;;;;;;;;;6208429;23;20438;-47
2022/04/21 10:02:04;;;;;;;1.80;1.30;;;;;;;;;;6207935;23;20087;-45
2022/04/21 10:04:31;;;;;;;2.00;1.25;;;;;;;;;;6207978;23;20007;-48
2022/04/21 10:06:58;;;;;;;1.42;1.33;;;;;;;;;;6208400;23;20058;-50
2022/04/21 10:09:24;;;;;;;1.55;1.10;;;;;;;;;;6208455;23;19997;-50
2022/04/21 10:11:52;;;;;;;1.02;0.95;;;;;;;;;;6207921;23;20369;-46
2022/04/21 10:14:18;;;;;;;1.85;1.20;;;;;;;;;;6207948;23;20449;-50
2022/04/21 10:16:45;;;;;;;1.20;1.05;;;;;;;;;;6179677;23;20023;-50
2022/04/21 10:19:12;;;;;;;1.48;1.38;;;;;;;;;;6208366;23;20378;-50
2022/04/21 10:21:42;;;;;;;1.27;1.02;;;;;;;;;;6208812;23;20008;-49
2022/04/21 10:24:08;;;;;;;1.30;1.20;;;;;;;;;;6208765;23;20051;-50
2022/04/21 10:26:35;;;;;;;1.40;1.30;;;;;;;;;;6207036;23;20771;-50
2022/04/21 10:29:10;;;;;;;1.50;1.40;;;;;;;;;;6208157;23;20445;-50
2022/04/21 10:31:45;;;;;;;1.27;1.17;;;;;;;;;;6207562;23;20008;-49
2022/04/21 10:34:11;;;;;;;1.45;1.35;;;;;;;;;;6206955;23;20150;-51
2022/04/21 10:36:41;;;;;;;1.50;1.30;;;;;;;;;;6207950;23;20005;-49
2022/04/21 10:39:10;;;;;;;1.52;1.25;;;;;;;;;;6207882;23;20088;-49
2022/04/21 10:41:38;;;;;;;1.23;1.10;;;;;;;;;;6207465;23;20335;-50
2022/04/21 10:44:12;;;;;;;1.02;0.93;;;;;;;;;;6206963;23;20028;-47
2022/04/21 10:46:38;;;;;;;1.70;1.60;;;;;;;;;;6207423;23;20050;-50
2022/04/21 10:49:04;;;;;;;1.50;1.40;;;;;;;;;;6206850;23;20429;-48
2022/04/21 10:57:12;;;;;;;1.65;1.50;;;;;;;;;;6204527;23;20079;-51
2022/04/21 10:57:36;;;;;;;1.92;1.33;;;;;;;;;;6171382;23;20012;-51
2022/04/21 11:00:05;;;;;;;1.33;1.23;;;;;;;;;;6206621;23;20066;-49
2022/04/21 11:02:38;;;;;;;1.20;1.10;;;;;;;;;;6206532;23;20008;-47
2022/04/21 11:05:26;;;;;;;1.88;1.20;;;;;;;;;;6155155;23;20001;-47
2022/04/21 11:07:52;;;;;;;2.00;1.80;;;;;;;;;;6205120;23;20615;-48
2022/04/21 11:10:26;;;;;;;1.40;1.30;;;;;;;;;;6206390;23;20000;-50
2022/04/21 11:12:53;;;;;;;1.48;1.33;;;;;;;;;;6206841;23;20005;-47
2022/04/21 11:15:38;;;;;;;3.28;1.48;;;;;;;;;;6207418;23;20008;-51
2022/04/21 11:18:11;;;;;;;1.48;1.10;;;;;;;;;;6205451;23;20005;-48
2022/04/21 11:20:39;;;;;;;1.75;1.35;;;;;;;;;;6206076;23;20035;-50
2022/04/21 11:23:07;;;;;;;1.52;1.30;;;;;;;;;;6205803;23;20008;-50
2022/04/21 11:25:35;;;;;;;1.40;1.30;;;;;;;;;;6204717;23;20441;-50
2022/04/21 11:28:01;;;;;;;1.50;1.40;;;;;;;;;;6205094;23;20353;-47
2022/04/21 11:30:28;;;;;;;1.27;1.15;;;;;;;;;;6205195;23;20005;-47
2022/04/21 11:32:56;;;;;;;1.95;1.50;;;;;;;;;;6205171;23;20005;-50
2022/04/21 11:35:24;;;;;;;1.65;1.40;;;;;;;;;;6204786;23;20004;-49
2022/04/21 11:37:54;;;;;;;1.70;1.40;;;;;;;;;;6205803;23;20009;-48
2022/04/21 11:40:21;;;;;;;1.55;1.10;;;;;;;;;;6178959;23;20400;-50
2022/04/21 11:42:49;;;;;;;1.40;1.30;;;;;;;;;;6205499;23;20012;-51
2022/04/21 11:45:22;;;;;;;1.17;1.08;;;;;;;;;;6204705;23;20019;-47
2022/04/21 11:47:49;;;;;;;1.40;1.30;;;;;;;;;;6205439;23;20027;-47
2022/04/21 11:50:19;;;;;;;1.10;1.00;;;;;;;;;;6203907;23;20024;-48
2022/04/21 11:52:46;;;;;;;2.05;1.10;;;;;;;;;;6205160;23;20056;-51
2022/04/21 11:55:17;;;;;;;1.20;1.10;;;;;;;;;;6204633;23;20001;-50
2022/04/21 11:57:44;;;;;;;1.65;1.55;;;;;;;;;;6204395;23;20011;-50
2022/04/21 12:00:10;;;;;;;1.67;1.40;;;;;;;;;;6205263;23;20102;-48
2022/04/21 12:08:11;;;;;;;3.03;1.40;;;;;;;;;;6204750;23;20430;-47
2022/04/21 12:10:37;;;;;;;1.65;1.27;;;;;;;;;;6204269;23;20005;-50
2022/04/21 12:13:04;;;;;;;1.92;1.60;;;;;;;;;;6206727;23;20019;-47
2022/04/21 12:15:32;;;;;;;1.23;1.10;;;;;;;;;;6206973;23;20377;-47
2022/04/21 12:18:01;;;;;;;1.48;1.00;;;;;;;;;;6206859;23;20396;-45
2022/04/21 12:20:28;;;;;;;1.17;0.90;;;;;;;;;;6206023;23;20253;-49
2022/04/21 12:22:56;;;;;;;1.60;1.50;;;;;;;;;;6206756;23;20005;-49
2022/04/21 12:25:32;;;;;;;2.05;1.30;;;;;;;;;;6206514;23;20008;-50
2022/04/21 12:28:05;;;;;;;1.40;1.25;;;;;;;;;;6206204;23;20001;-50
2022/04/21 12:30:31;;;;;;;2.07;1.40;;;;;;;;;;6206839;23;20357;-48
2022/04/21 12:32:58;;;;;;;1.05;0.95;;;;;;;;;;6206575;23;20299;-51
2022/04/21 12:35:45;;;;;;;0.88;0.88;;;;;;;;;;6205841;23;20009;-46
2022/04/21 12:40:59;;;;;;;1.15;1.05;;;;;;;;;;6206515;23;20079;-50
2022/04/21 12:43:26;;;;;;;1.00;0.82;;;;;;;;;;6206239;23;20066;-47
2022/04/21 12:45:52;;;;;;;1.00;0.90;;;;;;;;;;6206140;23;20055;-49
2022/04/21 12:48:25;;;;;;;1.85;1.05;;;;;;;;;;6204675;23;20023;-50
2022/04/21 12:50:53;;;;;;;1.05;0.95;;;;;;;;;;6206802;23;20020;-46
2022/04/21 12:53:27;;;;;;;1.10;0.80;;;;;;;;;;6205764;23;20327;-50
2022/04/21 12:55:53;;;;;;;1.27;0.90;;;;;;;;;;6205784;23;20011;-50
2022/04/21 12:58:31;;;;;;;1.42;1.00;;;;;;;;;;6206308;23;20504;-48
2022/04/21 13:01:00;;;;;;;1.05;0.90;;;;;;;;;;6206640;23;20032;-49
2022/04/21 13:03:27;;;;;;;1.70;1.10;;;;;;;;;;6205514;23;20008;-48
2022/04/21 13:05:55;;;;;;;0.82;0.73;;;;;;;;;;6206205;23;20307;-49
2022/04/21 13:08:30;;;;;;;0.80;0.80;;;;;;;;;;6206193;23;20043;-50
2022/04/21 13:10:57;;;;;;;1.20;0.88;;;;;;;;;;6206433;23;20032;-50
2022/04/21 13:13:23;;;;;;;0.98;0.88;;;;;;;;;;6206276;23;20011;-51
2022/04/21 13:15:50;;;;;;;0.88;0.80;;;;;;;;;;6179186;23;20004;-51
2022/04/21 13:18:17;;;;;;;0.80;0.80;;;;;;;;;;6207996;23;20028;-48
2022/04/21 13:23:28;;;;;;;1.33;1.00;;;;;;;;;;6206580;23;20063;-50
2022/04/21 13:25:55;;;;;;;2.47;1.27;;;;;;;;;;6206847;23;19997;-47
2022/04/21 13:28:22;;;;;;;3.15;1.20;;;;;;;;;;6206616;23;20001;-48
2022/04/21 13:33:21;;;;;;;1.80;1.05;;;;;;;;;;6206878;23;20001;-51
2022/04/21 13:33:38;;;;;;;0.88;0.80;;;;;;;;;;6207090;23;20062;-50
2022/04/21 13:36:05;;;;;;;1.15;0.88;;;;;;;;;;6208548;23;20001;-51
2022/04/21 13:38:32;;;;;;;1.10;1.00;;;;;;;;;;6207634;23;20000;-48
2022/04/21 13:40:58;;;;;;;1.38;0.93;;;;;;;;;;6207419;23;20008;-50
2022/04/21 13:43:26;;;;;;;1.08;0.90;;;;;;;;;;6207416;23;20398;-48
2022/04/21 13:45:53;;;;;;;1.52;1.00;;;;;;;;;;6206995;23;20036;-47
2022/04/21 13:48:19;;;;;;;1.15;0.90;;;;;;;;;;6206872;23;20063;-47
2022/04/21 13:50:46;;;;;;;1.10;0.80;;;;;;;;;;6206719;23;20007;-50
2022/04/21 13:53:13;;;;;;;1.00;0.93;;;;;;;;;;6206863;23;20361;-50
2022/04/21 13:55:39;;;;;;;1.92;0.93;;;;;;;;;;6205863;23;20005;-50
2022/04/21 13:58:06;;;;;;;1.00;0.80;;;;;;;;;;6204917;23;20012;-47
2022/04/21 14:00:32;;;;;;;1.27;1.00;;;;;;;;;;6206913;23;20009;-51
2022/04/21 14:02:59;;;;;;;0.80;0.80;;;;;;;;;;6207348;23;20019;-47
2022/04/21 14:05:25;;;;;;;0.85;0.80;;;;;;;;;;6179789;23;20071;-51
2022/04/21 14:07:51;;;;;;;1.02;0.73;;;;;;;;;;6204727;23;20499;-51
2022/04/21 14:10:17;;;;;;;0.80;0.80;;;;;;;;;;6204374;23;20000;-48
2022/04/21 14:12:44;;;;;;;0.70;0.70;;;;;;;;;;6206264;23;20008;-50
2022/04/21 14:15:10;;;;;;;1.10;1.00;;;;;;;;;;6206031;23;20008;-47
2022/04/21 14:17:37;;;;;;;0.70;0.70;;;;;;;;;;6207006;23;20005;-47
2022/04/21 14:20:05;;;;;;;1.00;0.90;;;;;;;;;;6207829;23;20035;-51
2022/04/21 14:22:33;;;;;;;1.05;0.90;;;;;;;;;;6206643;23;20009;-51
2022/04/21 14:24:59;;;;;;;0.73;0.73;;;;;;;;;;6206933;23;20007;-48
2022/04/21 14:27:25;;;;;;;1.20;0.85;;;;;;;;;;6206711;23;20682;-48
2022/04/21 14:29:51;;;;;;;1.02;0.82;;;;;;;;;;6205672;23;20345;-50
2022/04/21 14:32:17;;;;;;;1.00;0.90;;;;;;;;;;6207431;23;20612;-52
2022/04/21 14:34:43;;;;;;;1.65;1.10;;;;;;;;;;6207696;23;20319;-47
2022/04/21 14:37:10;;;;;;;0.80;0.80;;;;;;;;;;6208433;23;20426;-51
2022/04/21 14:45:06;;;;;;;1.90;1.00;;;;;;;;;;6207900;23;20096;-49
2022/04/21 14:47:32;;;;;;;0.85;0.85;;;;;;;;;;6207932;23;20008;-51
2022/04/21 14:49:59;;;;;;;1.35;1.05;;;;;;;;;;6206857;23;20011;-50
2022/04/21 14:52:26;;;;;;;0.80;0.80;;;;;;;;;;6206943;23;20427;-51
2022/04/21 14:54:52;;;;;;;1.50;1.10;;;;;;;;;;6206917;23;20103;-50
2022/04/21 14:57:19;;;;;;;1.00;0.90;;;;;;;;;;6207365;23;20004;-51
2022/04/21 14:59:45;;;;;;;1.73;1.10;;;;;;;;;;6206590;23;20087;-51
2022/04/21 15:02:11;;;;;;;1.77;0.88;;;;;;;;;;6206355;23;20015;-49
2022/04/21 15:04:37;;;;;;;1.30;0.98;;;;;;;;;;6205527;23;20377;-50
2022/04/21 15:07:05;;;;;;;0.90;0.90;;;;;;;;;;6207390;23;20066;-49
2022/04/21 15:09:31;;;;;;;0.88;0.80;;;;;;;;;;6205226;23;20023;-51
2022/04/21 15:11:58;;;;;;;0.77;0.77;;;;;;;;;;6205021;23;20001;-49
2022/04/21 15:14:24;;;;;;;0.77;0.77;;;;;;;;;;6206555;23;20004;-52
2022/04/21 15:16:52;;;;;;;0.80;0.80;;;;;;;;;;6205771;23;20704;-49
2022/04/21 15:19:19;;;;;;;1.00;0.90;;;;;;;;;;6206469;23;20488;-48
2022/04/21 15:21:45;;;;;;;1.20;1.00;;;;;;;;;;6205862;23;20005;-51
2022/04/21 15:24:12;;;;;;;0.82;0.82;;;;;;;;;;6205975;23;20015;-48
2022/04/21 15:26:38;;;;;;;1.05;0.95;;;;;;;;;;6206761;23;20033;-50
2022/04/21 15:29:05;;;;;;;2.15;1.00;;;;;;;;;;6207403;23;20000;-50
2022/04/21 15:31:31;;;;;;;0.88;0.80;;;;;;;;;;6207096;23;20001;-52
2022/04/21 15:33:57;;;;;;;1.10;1.00;;;;;;;;;;6206522;23;20066;-52
2022/04/21 15:36:24;;;;;;;1.30;1.15;;;;;;;;;;6205746;23;20014;-52
2022/04/21 15:38:50;;;;;;;1.10;0.90;;;;;;;;;;6205785;23;20349;-52
2022/04/21 15:41:17;;;;;;;1.73;0.90;;;;;;;;;;6206528;23;20035;-50
2022/04/21 15:43:43;;;;;;;0.93;0.93;;;;;;;;;;6206455;23;20012;-52
2022/04/21 15:46:10;;;;;;;2.22;1.60;;;;;;;;;;6205809;23;20067;-51
2022/04/21 15:48:37;;;;;;;0.80;0.80;;;;;;;;;;6208982;23;20417;-49